Time;durP1;ratioP1;P1;durP2;ratioP2;P2;SDS_P1;SDS_P2;PMS_P1;PMS_P2;Temp;Humidity;BMP_temperature;BMP_pressure;BME280_temperature;BME280_humidity;BME280_pressure;Samples;Min_cycle;Max_cycle;Signal;HPM_P1;HPM_P2
2022/08/11 00:00:37;;;;;;;;;;;15.90;99.90;;;;;;6251852;22;19966;-73
2022/08/11 00:03:07;;;;;;;;;;;15.90;99.90;;;;;;6226494;22;19962;-72
2022/08/11 00:05:42;;;;;;;;;;;15.90;99.90;;;;;;6251901;22;19923;-73
2022/08/11 00:08:08;;;;;;;;;;;15.90;99.90;;;;;;6252250;22;20278;-71
2022/08/11 00:10:34;;;;;;;;;;;15.90;99.90;;;;;;6251360;22;19927;-71
2022/08/11 00:13:01;;;;;;;;;;;15.90;99.90;;;;;;6226640;22;19920;-73
2022/08/11 00:15:38;;;;;;;;;;;15.90;99.90;;;;;;6226539;22;19919;-73
2022/08/11 00:18:03;;;;;;;;;;;15.90;99.90;;;;;;6226707;22;19973;-71
2022/08/11 00:20:31;;;;;;;;;;;15.90;99.90;;;;;;6251704;22;19919;-72
2022/08/11 00:23:01;;;;;;;;;;;15.90;99.90;;;;;;6226313;22;19919;-72
2022/08/11 00:25:27;;;;;;;;;;;15.80;99.90;;;;;;6278865;22;19927;-72
2022/08/11 00:27:52;;;;;;;;;;;15.80;99.90;;;;;;6251860;22;19976;-73
2022/08/11 00:30:18;;;;;;;;;;;15.90;99.90;;;;;;6251846;22;19976;-73
2022/08/11 00:32:51;;;;;;;;;;;15.90;99.90;;;;;;6196253;23;19920;-71
2022/08/11 00:35:17;;;;;;;;;;;15.80;99.90;;;;;;6246821;23;20279;-73
2022/08/11 00:37:49;;;;;;;;;;;15.80;99.90;;;;;;6248067;22;19931;-73
2022/08/11 00:40:23;;;;;;;;;;;15.80;99.90;;;;;;6221179;22;19924;-73
2022/08/11 00:43:04;;;;;;;;;;;15.80;99.90;;;;;;6248052;22;19992;-73
2022/08/11 00:45:41;;;;;;;;;;;15.80;99.90;;;;;;6246215;23;19927;-72
2022/08/11 00:48:35;;;;;;;;;;;15.80;99.90;;;;;;6221541;23;19920;-72
2022/08/11 00:51:19;;;;;;;;;;;15.80;99.90;;;;;;6221653;23;20227;-74
2022/08/11 00:53:55;;;;;;;;;;;15.80;99.90;;;;;;6246472;23;19920;-71
2022/08/11 00:56:33;;;;;;;;;;;15.70;99.90;;;;;;6246765;23;20290;-72
2022/08/11 00:59:01;;;;;;;;;;;15.80;99.90;;;;;;6246418;23;20014;-72
2022/08/11 01:01:53;;;;;;;;;;;15.70;99.90;;;;;;6246225;22;19926;-71
2022/08/11 01:04:30;;;;;;;;;;;15.70;99.90;;;;;;6200379;23;19920;-72
2022/08/11 01:06:58;;;;;;;;;;;15.60;99.90;;;;;;6246507;23;20293;-73
2022/08/11 01:09:32;;;;;;;;;;;15.60;99.90;;;;;;6246235;23;19919;-71
2022/08/11 01:12:04;;;;;;;;;;;15.50;99.90;;;;;;6245764;22;20346;-73
2022/08/11 01:14:43;;;;;;;;;;;15.50;99.90;;;;;;6244700;23;19916;-73
2022/08/11 01:17:50;;;;;;;;;;;15.50;99.90;;;;;;6221247;23;19919;-72
2022/08/11 01:20:21;;;;;;;;;;;15.50;99.90;;;;;;6129695;23;20256;-72
2022/08/11 01:23:06;;;;;;;;;;;15.40;99.90;;;;;;6130046;23;19924;-72
2022/08/11 01:25:37;;;;;;;;;;;15.40;99.90;;;;;;6203338;23;19916;-72
2022/08/11 01:28:03;;;;;;;;;;;15.30;99.90;;;;;;6246093;23;20250;-71
2022/08/11 01:30:47;;;;;;;;;;;15.30;99.90;;;;;;6246178;22;19916;-73
2022/08/11 01:33:42;;;;;;;;;;;15.30;99.90;;;;;;6251138;22;19923;-72
2022/08/11 01:36:27;;;;;;;;;;;15.30;99.90;;;;;;6225761;22;19919;-73
2022/08/11 01:39:11;;;;;;;;;;;15.20;99.90;;;;;;6250982;22;20337;-72
2022/08/11 01:44:40;;;;;;;;;;;15.20;99.90;;;;;;6250932;22;19919;-72
2022/08/11 01:47:49;;;;;;;;;;;15.10;99.90;;;;;;6251040;22;19942;-71
2022/08/11 01:50:13;;;;;;;;;;;15.10;99.90;;;;;;6250564;22;19919;-72
2022/08/11 01:52:59;;;;;;;;;;;15.10;99.90;;;;;;6250996;22;19920;-72
2022/08/11 01:55:48;;;;;;;;;;;15.10;99.90;;;;;;6250854;22;19919;-73
2022/08/11 01:58:23;;;;;;;;;;;15.00;99.90;;;;;;6250456;22;19923;-72
2022/08/11 02:01:08;;;;;;;;;;;15.00;99.90;;;;;;6250715;22;19926;-73
2022/08/11 02:03:54;;;;;;;;;;;14.90;99.90;;;;;;6250155;22;19919;-72
2022/08/11 02:06:54;;;;;;;;;;;14.90;99.90;;;;;;6150408;22;19946;-72
2022/08/11 02:09:42;;;;;;;;;;;14.90;99.90;;;;;;6225654;22;19949;-71
2022/08/11 02:12:26;;;;;;;;;;;14.80;99.90;;;;;;6250684;22;19919;-72
2022/08/11 02:15:13;;;;;;;;;;;14.80;99.90;;;;;;6250550;22;19923;-72
2022/08/11 02:17:41;;;;;;;;;;;14.80;99.90;;;;;;6277435;22;19919;-71
2022/08/11 02:25:50;;;;;;;;;;;14.90;99.90;;;;;;6250557;22;19920;-72
2022/08/11 02:28:15;;;;;;;;;;;14.90;99.90;;;;;;6225295;22;19919;-72
2022/08/11 02:33:21;;;;;;;;;;;14.90;99.90;;;;;;6250187;22;19926;-72
2022/08/11 02:33:40;;;;;;;;;;;15.00;99.90;;;;;;6250554;22;19926;-73
2022/08/11 02:36:09;;;;;;;;;;;14.90;99.90;;;;;;6250360;22;19919;-71
2022/08/11 02:38:34;;;;;;;;;;;15.00;99.90;;;;;;6250552;22;20348;-72
2022/08/11 02:42:21;;;;;;;;;;;14.90;99.90;;;;;;6277467;22;19965;-71
2022/08/11 02:44:10;;;;;;;;;;;14.90;99.90;;;;;;6250160;22;19919;-72
2022/08/11 02:46:45;;;;;;;;;;;14.90;99.90;;;;;;6223790;22;19962;-72
2022/08/11 02:52:04;;;;;;;;;;;14.90;99.90;;;;;;6250433;22;19923;-72
2022/08/11 02:54:48;;;;;;;;;;;14.90;99.90;;;;;;6250378;22;19920;-71
2022/08/11 02:57:26;;;;;;;;;;;14.80;99.90;;;;;;6250385;22;19926;-72
2022/08/11 03:00:10;;;;;;;;;;;14.80;99.90;;;;;;6225305;22;20447;-71
2022/08/11 03:02:36;;;;;;;;;;;14.80;99.90;;;;;;6277538;22;19920;-71
2022/08/11 03:05:10;;;;;;;;;;;14.80;99.90;;;;;;6250426;22;19977;-72
2022/08/11 03:07:39;;;;;;;;;;;14.80;99.90;;;;;;6251145;22;20302;-71
2022/08/11 03:10:19;;;;;;;;;;;14.80;99.90;;;;;;6252417;22;19919;-72
2022/08/11 03:18:50;;;;;;;;;;;14.80;99.90;;;;;;6251994;22;19946;-71
2022/08/11 03:21:24;;;;;;;;;;;14.90;99.90;;;;;;6252634;22;19919;-73
2022/08/11 03:41:57;;;;;;;;;;;14.90;99.90;;;;;;6040218;23;19921;-77
2022/08/11 03:45:09;;;;;;;;;;;14.90;99.90;;;;;;6067347;23;20425;-76
2022/08/11 03:55:35;;;;;;;;;;;;;;;;;;;;;
2022/08/11 04:02:30;;;;;;;;;;;;;;;;;;;;;
2022/08/11 04:05:47;;;;;;;;;;;14.60;99.90;;;;;;5928288;23;19926;-76
2022/08/11 04:08:54;;;;;;;;;;;14.50;99.90;;;;;;5872622;24;19920;-77
2022/08/11 04:12:25;;;;;;;;;;;;;;;;;;;;;
2022/08/11 04:18:51;;;;;;;;;;;14.30;99.90;;;;;;5871710;24;19967;-76
2022/08/11 04:40:19;;;;;;;;;;;;;;;;;;;;;
2022/08/11 04:43:37;;;;;;;;;;;14.40;99.90;;;;;;6018448;23;20342;-77
2022/08/11 05:01:39;;;;;;;;;;;14.40;99.90;;;;;;6004755;23;19995;-77
2022/08/11 05:35:04;;;;;;;;;;;15.50;99.90;;;;;;5894985;24;19926;-77
2022/08/11 05:56:59;;;;;;;;;;;;;;;;;;;;;
2022/08/11 06:03:12;;;;;;;;;;;;;;;;;;;;;
2022/08/11 06:06:18;;;;;;;;;;;17.60;99.90;;;;;;6157229;23;19975;-77
2022/08/11 06:09:13;;;;;;;;;;;;;;;;;;;;;
2022/08/11 06:12:25;;;;;;;;;;;;;;;;;;;;;
2022/08/11 06:15:44;;;;;;;;;;;;;;;;;;;;;
2022/08/11 06:33:00;;;;;;;;;;;19.60;99.90;;;;;;6132243;22;19922;-76
2022/08/11 06:42:39;;;;;;;;;;;20.10;99.90;;;;;;6246102;22;19958;-80
2022/08/11 06:45:24;;;;;;;;;;;20.20;99.90;;;;;;6241111;23;19916;-79
2022/08/11 06:47:50;;;;;;;;;;;20.50;99.90;;;;;;6243868;23;19995;-79
2022/08/11 06:53:26;;;;;;;;;;;20.90;99.90;;;;;;6245438;23;19923;-82
2022/08/11 07:01:53;;;;;;;;;;;21.20;99.90;;;;;;6245203;22;20102;-79
2022/08/11 07:04:40;;;;;;;;;;;;;;;;;;;;;
2022/08/11 07:30:57;;;;;;;;;;;22.60;99.90;;;;;;6132782;23;19916;-80
2022/08/11 07:33:41;;;;;;;;;;;22.90;99.90;;;;;;6161325;23;19963;-76
2022/08/11 07:39:53;;;;;;;;;;;23.30;99.90;;;;;;6102826;23;19927;-81
2022/08/11 07:42:40;;;;;;;;;;;23.20;99.90;;;;;;6035695;23;19922;-80
2022/08/11 07:54:50;;;;;;;;;;;23.90;99.90;;;;;;6007935;23;19919;-80
2022/08/11 08:20:02;;;;;;;;;;;25.00;99.90;;;;;;6128905;23;19917;-79
2022/08/11 12:06:32;;;;;;;;;;;29.40;69.30;;;;;;6184008;23;19935;-79
2022/08/11 13:59:40;;;;;;;;;;;30.40;72.80;;;;;;6185093;23;19912;-75
2022/08/11 14:02:38;;;;;;;;;;;30.30;72.40;;;;;;6158026;23;19916;-83
2022/08/11 14:05:26;;;;;;;;;;;30.40;71.80;;;;;;6038686;23;20238;-79
2022/08/11 14:08:27;;;;;;;;;;;30.40;71.50;;;;;;6075009;23;19912;-82
2022/08/11 14:13:48;;;;;;;;;;;30.50;70.00;;;;;;6122586;23;20044;-83
2022/08/11 14:19:37;;;;;;;;;;;30.70;71.30;;;;;;6130208;23;19917;-78
2022/08/11 14:22:06;;;;;;;;;;;30.70;69.70;;;;;;6109127;23;19916;-79
2022/08/11 14:24:36;;;;;;;;;;;30.70;69.70;;;;;;6105953;23;20027;-79
2022/08/11 14:27:02;;;;;;;;;;;30.70;69.20;;;;;;6128282;23;19912;-80
2022/08/11 14:29:31;;;;;;;;;;;30.70;68.90;;;;;;6103603;23;20342;-78
2022/08/11 14:35:33;;;;;;;;;;;30.90;68.70;;;;;;6038408;23;20352;-79
2022/08/11 14:38:02;;;;;;;;;;;30.90;70.20;;;;;;6110847;23;19917;-80
2022/08/11 14:50:23;;;;;;;;;;;31.20;68.80;;;;;;6074552;23;19921;-82
2022/08/11 14:52:53;;;;;;;;;;;31.40;67.50;;;;;;6128931;23;19912;-83
2022/08/11 14:58:07;;;;;;;;;;;30.70;67.00;;;;;;6178530;23;20355;-78
2022/08/11 15:00:33;;;;;;;;;;;30.80;67.30;;;;;;6154073;23;20291;-75
2022/08/11 15:03:14;;;;;;;;;;;30.90;67.00;;;;;;6178541;23;19912;-75
2022/08/11 15:05:46;;;;;;;;;;;30.90;66.60;;;;;;6180956;23;19955;-75
2022/08/11 15:08:13;;;;;;;;;;;31.00;66.40;;;;;;6180289;23;19913;-72
2022/08/11 15:10:43;;;;;;;;;;;31.20;65.90;;;;;;6155799;23;19923;-76
2022/08/11 15:13:11;;;;;;;;;;;31.30;64.30;;;;;;6155123;23;19983;-77
2022/08/11 15:18:37;;;;;;;;;;;31.30;63.80;;;;;;6181531;23;19924;-77
2022/08/11 15:38:39;;;;;;;;;;;31.80;62.20;;;;;;5982101;24;20339;-75
2022/08/11 15:53:50;;;;;;;;;;;31.80;65.70;;;;;;6270381;22;19915;-76
2022/08/11 15:56:28;;;;;;;;;;;32.00;65.50;;;;;;6251426;22;19923;-78
2022/08/11 16:04:29;;;;;;;;;;;31.60;61.90;;;;;;6250443;22;19982;-72
2022/08/11 16:06:59;;;;;;;;;;;32.00;59.60;;;;;;6251304;22;19911;-73
2022/08/11 16:09:28;;;;;;;;;;;31.90;60.30;;;;;;6226415;22;19911;-71
2022/08/11 16:11:55;;;;;;;;;;;31.60;60.30;;;;;;6226647;22;19961;-72
2022/08/11 16:17:09;;;;;;;;;;;31.90;60.40;;;;;;6251614;22;19976;-73
2022/08/11 16:19:35;;;;;;;;;;;31.80;61.30;;;;;;6251261;22;19919;-72
2022/08/11 16:22:33;;;;;;;;;;;31.30;60.40;;;;;;6227516;22;20349;-75
2022/08/11 16:25:11;;;;;;;;;;;30.90;62.30;;;;;;6225823;22;19957;-76
2022/08/11 16:28:08;;;;;;;;;;;30.10;63.20;;;;;;6227674;22;19937;-75
2022/08/11 16:30:49;;;;;;;;;;;29.30;66.10;;;;;;6224996;22;19981;-75
2022/08/11 16:33:29;;;;;;;;;;;28.60;68.00;;;;;;6278418;22;19911;-81
2022/08/11 16:38:40;;;;;;;;;;;27.40;71.90;;;;;;6251213;22;19915;-73
2022/08/11 16:41:07;;;;;;;;;;;27.00;72.80;;;;;;6225283;22;19982;-70
2022/08/11 16:48:54;;;;;;;;;;;26.50;74.60;;;;;;6250885;22;19919;-75
2022/08/11 16:51:20;;;;;;;;;;;26.30;75.30;;;;;;6251300;22;19915;-74
2022/08/11 16:53:47;;;;;;;;;;;26.20;76.70;;;;;;6200562;23;20326;-73
2022/08/11 16:56:22;;;;;;;;;;;26.00;76.60;;;;;;6247029;23;19978;-75
2022/08/11 16:59:23;;;;;;;;;;;25.90;75.60;;;;;;6221014;23;19911;-75
2022/08/11 17:01:56;;;;;;;;;;;25.90;76.30;;;;;;6219297;23;19911;-73
2022/08/11 17:17:35;;;;;;;;;;;25.20;77.90;;;;;;6149964;23;19968;-78
2022/08/11 17:20:39;;;;;;;;;;;25.10;78.50;;;;;;6132461;23;19912;-79
2022/08/11 17:23:46;;;;;;;;;;;25.20;79.70;;;;;;6181615;23;19962;-78
